Time;durP1;ratioP1;P1;durP2;ratioP2;P2;SDS_P1;SDS_P2;PMS_P1;PMS_P2;Temp;Humidity;BMP_temperature;BMP_pressure;BME280_temperature;BME280_humidity;BME280_pressure;Samples;Min_cycle;Max_cycle;Signal;HPM_P1;HPM_P2
2021/08/17 00:00:18;;;;;;;14.67;5.83;;;10.90;93.50;;;;;;2058125;28;20206;-64
2021/08/17 00:01:19;;;;;;;15.17;6.27;;;11.00;93.70;;;;;;2057540;28;20186;-64
2021/08/17 00:02:19;;;;;;;9.73;6.05;;;11.00;93.80;;;;;;2057432;28;20254;-64
2021/08/17 00:03:20;;;;;;;12.37;7.23;;;11.00;93.90;;;;;;2058026;28;20202;-64
2021/08/17 00:04:21;;;;;;;12.43;6.77;;;11.00;94.00;;;;;;2058077;28;20333;-64
2021/08/17 00:05:22;;;;;;;14.60;6.37;;;11.10;93.90;;;;;;2057899;28;20193;-64
2021/08/17 00:06:23;;;;;;;12.13;6.90;;;11.10;93.90;;;;;;2058130;28;20186;-64
2021/08/17 00:07:23;;;;;;;13.80;7.33;;;11.00;93.50;;;;;;2057766;28;20666;-64
2021/08/17 00:08:24;;;;;;;14.73;7.87;;;11.10;93.70;;;;;;2049337;29;20187;-64
2021/08/17 00:09:25;;;;;;;12.87;5.97;;;11.10;93.70;;;;;;2049294;29;20195;-64
2021/08/17 00:10:26;;;;;;;12.13;5.87;;;11.10;93.50;;;;;;2058015;28;20230;-63
2021/08/17 00:11:26;;;;;;;11.00;6.57;;;11.20;93.50;;;;;;2057222;28;20278;-64
2021/08/17 00:12:27;;;;;;;11.20;5.40;;;11.20;93.50;;;;;;2057310;28;20176;-64
2021/08/17 00:13:28;;;;;;;16.27;7.20;;;11.20;93.50;;;;;;2057915;28;20674;-64
2021/08/17 00:14:29;;;;;;;14.83;6.53;;;11.20;93.50;;;;;;2057931;28;20269;-64
2021/08/17 00:15:30;;;;;;;13.60;7.13;;;11.20;93.90;;;;;;2057228;28;20179;-64
2021/08/17 00:16:31;;;;;;;10.80;5.65;;;11.20;93.40;;;;;;2057331;28;20176;-64
2021/08/17 00:17:32;;;;;;;11.90;7.03;;;11.20;93.60;;;;;;2057112;28;20951;-63
2021/08/17 00:18:32;;;;;;;13.03;6.47;;;11.20;93.60;;;;;;2057350;28;20673;-64
2021/08/17 00:19:33;;;;;;;9.77;6.57;;;11.20;93.40;;;;;;2057693;28;20207;-64
2021/08/17 00:20:34;;;;;;;8.20;5.03;;;11.20;93.40;;;;;;2057847;28;20183;-63
2021/08/17 00:21:36;;;;;;;11.47;5.30;;;11.20;93.30;;;;;;2057814;28;20529;-63
2021/08/17 00:22:38;;;;;;;13.10;6.72;;;11.20;93.30;;;;;;2057778;28;20210;-64
2021/08/17 00:23:38;;;;;;;22.58;6.10;;;11.20;93.30;;;;;;2057814;28;20190;-64
2021/08/17 00:24:39;;;;;;;12.13;6.07;;;11.10;92.60;;;;;;2057989;28;20183;-64
2021/08/17 00:25:42;;;;;;;14.15;6.78;;;11.10;92.70;;;;;;2057779;28;20190;-63
2021/08/17 00:26:43;;;;;;;10.48;6.28;;;11.00;93.00;;;;;;2057788;28;20190;-63
2021/08/17 00:27:44;;;;;;;15.97;7.00;;;11.00;93.50;;;;;;2056802;28;20190;-64
2021/08/17 00:28:44;;;;;;;12.63;6.30;;;11.00;93.60;;;;;;2055470;28;20250;-64
2021/08/17 00:29:47;;;;;;;12.23;6.53;;;11.00;93.70;;;;;;2057632;28;20179;-65
2021/08/17 00:30:48;;;;;;;11.82;5.70;;;11.10;93.50;;;;;;2057734;28;20211;-64
2021/08/17 00:31:48;;;;;;;13.63;7.30;;;11.10;93.30;;;;;;2057723;28;20189;-64
2021/08/17 00:32:49;;;;;;;12.60;7.13;;;11.10;93.40;;;;;;2057883;28;20202;-64
2021/08/17 00:33:50;;;;;;;14.50;7.37;;;11.20;93.60;;;;;;2057707;28;20187;-64
2021/08/17 00:34:50;;;;;;;14.33;6.57;;;11.20;93.40;;;;;;2057848;28;20266;-64
2021/08/17 00:35:54;;;;;;;12.40;5.80;;;11.20;93.10;;;;;;2057750;28;20664;-64
2021/08/17 00:36:56;;;;;;;10.98;5.93;;;11.10;92.80;;;;;;2057020;28;20182;-64
2021/08/17 00:37:57;;;;;;;10.55;5.88;;;11.10;93.00;;;;;;2057135;28;20178;-64
2021/08/17 00:39:00;;;;;;;11.47;6.20;;;11.10;93.10;;;;;;2057734;28;20175;-64
2021/08/17 00:40:01;;;;;;;13.20;5.10;;;11.10;93.10;;;;;;2057659;28;20186;-64
2021/08/17 00:41:02;;;;;;;14.83;7.47;;;11.00;93.10;;;;;;2057751;28;20187;-64
2021/08/17 00:42:05;;;;;;;15.40;6.77;;;11.10;93.20;;;;;;2057570;28;20213;-64
2021/08/17 00:43:08;;;;;;;12.07;5.55;;;11.10;93.40;;;;;;2057662;28;20214;-64
2021/08/17 00:44:28;;;;;;;11.20;6.32;;;11.10;93.20;;;;;;2057557;28;20190;-65
2021/08/17 00:45:30;;;;;;;14.27;5.43;;;11.00;93.10;;;;;;2057702;28;20239;-64
2021/08/17 00:46:31;;;;;;;12.07;5.45;;;11.00;93.10;;;;;;2056978;28;20179;-63
2021/08/17 00:47:32;;;;;;;10.68;6.85;;;11.00;92.70;;;;;;2057159;28;20233;-64
2021/08/17 00:48:36;;;;;;;8.40;5.77;;;11.00;92.70;;;;;;2057673;28;20183;-64
2021/08/17 00:49:37;;;;;;;8.15;5.13;;;11.10;92.70;;;;;;2057642;28;20210;-64
2021/08/17 00:50:38;;;;;;;10.23;6.00;;;11.10;92.40;;;;;;2057579;28;20214;-64
2021/08/17 00:51:39;;;;;;;8.97;5.93;;;11.10;92.60;;;;;;2056962;28;20192;-64
2021/08/17 00:52:41;;;;;;;9.27;6.03;;;11.10;92.70;;;;;;2056967;28;20688;-64
2021/08/17 00:53:43;;;;;;;10.52;6.18;;;11.20;92.60;;;;;;2057008;28;20191;-64
2021/08/17 00:54:44;;;;;;;8.05;4.95;;;11.20;92.40;;;;;;2056943;28;20242;-64
2021/08/17 00:55:45;;;;;;;13.85;6.32;;;11.20;92.10;;;;;;2057053;28;20183;-63
2021/08/17 00:56:47;;;;;;;10.67;5.70;;;11.20;92.40;;;;;;2056915;28;20702;-65
2021/08/17 00:57:48;;;;;;;12.82;5.65;;;11.20;92.50;;;;;;2057431;28;20217;-64
2021/08/17 00:58:49;;;;;;;8.52;5.55;;;11.20;92.60;;;;;;2056866;28;20175;-63
2021/08/17 00:59:50;;;;;;;9.20;5.33;;;11.20;92.50;;;;;;2056887;28;20179;-64
2021/08/17 01:00:51;;;;;;;19.33;7.50;;;11.20;92.50;;;;;;2057460;28;20202;-64
2021/08/17 01:01:52;;;;;;;11.75;6.57;;;11.20;92.80;;;;;;2057641;28;20191;-64
2021/08/17 01:02:52;;;;;;;16.27;6.17;;;11.20;93.00;;;;;;2057542;28;20573;-64
2021/08/17 01:03:53;;;;;;;16.90;5.30;;;11.30;93.10;;;;;;2057538;28;20598;-63
2021/08/17 01:04:54;;;;;;;10.43;5.40;;;11.30;93.00;;;;;;2057627;28;20191;-64
2021/08/17 01:05:58;;;;;;;12.07;5.57;;;11.30;92.90;;;;;;2057575;28;20175;-64
2021/08/17 01:07:02;;;;;;;13.05;7.20;;;11.20;93.00;;;;;;2057350;28;20211;-64
2021/08/17 01:08:08;;;;;;;8.95;4.95;;;11.20;92.30;;;;;;2057426;28;20647;-64
2021/08/17 01:09:10;;;;;;;10.48;5.57;;;11.00;91.80;;;;;;2057521;28;20179;-64
2021/08/17 01:10:12;;;;;;;9.45;5.38;;;11.00;92.40;;;;;;2056825;28;22687;-64
2021/08/17 01:11:14;;;;;;;6.78;4.40;;;10.90;92.90;;;;;;2056905;28;20191;-64
2021/08/17 01:12:15;;;;;;;5.57;4.55;;;10.90;92.40;;;;;;2057406;28;20217;-64
2021/08/17 01:13:15;;;;;;;13.87;4.87;;;10.80;92.60;;;;;;2057604;28;20217;-64
2021/08/17 01:14:20;;;;;;;7.33;4.67;;;10.70;92.30;;;;;;2057460;28;20318;-64
2021/08/17 01:15:21;;;;;;;8.80;4.78;;;10.70;92.40;;;;;;2057507;28;20253;-64
2021/08/17 01:16:23;;;;;;;4.57;3.37;;;10.70;92.60;;;;;;2057444;28;20220;-64
2021/08/17 01:17:23;;;;;;;9.15;4.47;;;10.60;92.30;;;;;;2056650;28;20186;-64
2021/08/17 01:18:25;;;;;;;7.87;4.70;;;10.60;92.30;;;;;;2056784;28;20672;-64
2021/08/17 01:19:26;;;;;;;7.95;4.38;;;10.60;92.30;;;;;;2057443;28;20179;-64
2021/08/17 01:20:26;;;;;;;7.83;5.63;;;10.50;92.40;;;;;;2057443;28;20182;-64
2021/08/17 01:21:30;;;;;;;7.57;4.40;;;10.50;92.70;;;;;;2057463;28;20186;-64
2021/08/17 01:22:31;;;;;;;12.05;4.70;;;10.60;92.80;;;;;;2057301;28;20186;-64
2021/08/17 01:23:32;;;;;;;9.17;3.83;;;10.60;92.90;;;;;;2057445;28;20213;-63
2021/08/17 01:24:33;;;;;;;8.55;3.58;;;10.60;92.90;;;;;;2056646;28;20273;-63
2021/08/17 01:25:39;;;;;;;10.57;5.63;;;10.50;92.70;;;;;;2056826;28;20262;-64
2021/08/17 01:26:39;;;;;;;6.43;4.38;;;10.60;92.80;;;;;;2057320;28;20716;-64
2021/08/17 01:27:43;;;;;;;7.37;4.40;;;10.50;92.90;;;;;;2057299;28;20218;-64
2021/08/17 01:28:43;;;;;;;8.65;4.88;;;10.50;92.80;;;;;;2056622;28;20210;-64
2021/08/17 01:29:44;;;;;;;6.60;3.93;;;10.50;92.80;;;;;;2056706;28;20557;-64
2021/08/17 01:30:45;;;;;;;4.57;2.73;;;10.40;92.80;;;;;;2057408;28;20214;-64
2021/08/17 01:31:45;;;;;;;6.20;3.50;;;10.30;92.60;;;;;;2056762;28;20552;-63
2021/08/17 01:32:47;;;;;;;4.33;3.50;;;10.20;92.70;;;;;;2048635;28;20198;-64
2021/08/17 01:33:48;;;;;;;4.40;3.50;;;10.20;92.80;;;;;;2056793;28;20250;-64
2021/08/17 01:34:48;;;;;;;7.13;4.20;;;10.20;92.80;;;;;;2056711;28;20707;-64
2021/08/17 01:35:49;;;;;;;7.53;3.63;;;10.10;92.80;;;;;;2057293;28;20182;-63
2021/08/17 01:36:51;;;;;;;4.90;2.83;;;10.10;92.90;;;;;;2057110;28;20225;-64
2021/08/17 01:37:51;;;;;;;5.40;3.65;;;10.10;93.00;;;;;;2057453;28;20209;-64
2021/08/17 01:38:52;;;;;;;6.00;3.20;;;10.00;93.00;;;;;;2057292;28;20216;-65
2021/08/17 01:40:04;;;;;;;8.35;3.80;;;10.00;93.00;;;;;;2057270;28;20175;-64
2021/08/17 01:41:05;;;;;;;7.15;4.00;;;10.00;93.00;;;;;;2057234;28;20277;-64
2021/08/17 01:42:06;;;;;;;6.43;3.30;;;10.00;93.10;;;;;;2057295;28;20180;-64
2021/08/17 01:43:06;;;;;;;7.87;3.77;;;9.90;93.10;;;;;;2057139;28;20198;-64
2021/08/17 01:44:14;;;;;;;7.53;3.40;;;9.90;93.20;;;;;;2057371;28;20175;-64
2021/08/17 01:45:17;;;;;;;5.53;3.97;;;9.80;93.30;;;;;;2057319;28;20183;-63
2021/08/17 01:46:18;;;;;;;8.32;4.47;;;9.80;93.60;;;;;;2057367;28;20186;-63
2021/08/17 01:47:19;;;;;;;6.07;3.47;;;9.80;93.70;;;;;;2057138;28;20266;-64
2021/08/17 01:48:19;;;;;;;5.63;3.20;;;9.80;93.70;;;;;;2057339;28;20202;-64
2021/08/17 01:49:21;;;;;;;11.57;3.47;;;9.80;93.70;;;;;;2057234;28;20232;-64
2021/08/17 01:50:23;;;;;;;5.90;3.13;;;9.70;93.70;;;;;;2056682;28;20216;-64
2021/08/17 01:51:23;;;;;;;3.47;2.65;;;9.80;93.70;;;;;;2056775;28;20182;-64
2021/08/17 01:52:24;;;;;;;6.37;3.77;;;9.80;93.70;;;;;;2057320;28;20181;-63
2021/08/17 01:53:27;;;;;;;7.03;3.30;;;9.70;94.00;;;;;;2057324;28;20171;-64
2021/08/17 01:54:27;;;;;;;6.03;3.22;;;9.70;93.90;;;;;;2057414;28;20175;-64
2021/08/17 01:55:28;;;;;;;7.97;3.53;;;9.70;93.80;;;;;;2057340;28;20186;-64
2021/08/17 01:56:29;;;;;;;6.93;3.77;;;9.70;93.70;;;;;;2057499;28;20179;-64
2021/08/17 01:57:30;;;;;;;4.60;2.97;;;9.70;93.80;;;;;;2057129;28;20650;-64
2021/08/17 01:58:30;;;;;;;6.63;3.22;;;9.70;93.80;;;;;;2056536;28;20181;-63
2021/08/17 01:59:33;;;;;;;4.57;3.13;;;9.70;93.80;;;;;;2056606;28;20661;-64
2021/08/17 02:00:33;;;;;;;7.30;3.40;;;9.60;94.70;;;;;;2057255;28;20190;-63
2021/08/17 02:01:34;;;;;;;6.27;4.03;;;9.60;94.30;;;;;;2057227;28;20190;-64
2021/08/17 02:02:36;;;;;;;5.90;3.33;;;9.60;94.40;;;;;;2057157;28;20569;-64
2021/08/17 02:03:37;;;;;;;5.85;3.30;;;9.60;94.40;;;;;;2057868;28;20191;-64
2021/08/17 02:04:38;;;;;;;5.57;3.03;;;9.60;94.40;;;;;;2057714;28;20185;-64
2021/08/17 02:05:38;;;;;;;6.43;3.73;;;9.60;94.40;;;;;;2057166;28;20183;-64
2021/08/17 02:06:39;;;;;;;6.47;4.03;;;9.60;94.20;;;;;;2057172;28;20178;-64
2021/08/17 02:07:40;;;;;;;6.63;3.40;;;9.70;94.20;;;;;;2057106;28;20190;-64
2021/08/17 02:08:41;;;;;;;4.07;2.60;;;9.70;94.30;;;;;;2057121;28;20203;-64
2021/08/17 02:09:42;;;;;;;9.33;3.47;;;9.70;94.30;;;;;;2057058;28;20219;-64
2021/08/17 02:10:42;;;;;;;3.00;2.67;;;9.70;94.20;;;;;;2057179;28;20213;-64
2021/08/17 02:11:43;;;;;;;7.57;3.70;;;9.60;94.30;;;;;;2057097;28;20677;-64
2021/08/17 02:12:44;;;;;;;6.17;3.73;;;9.60;94.50;;;;;;2057091;28;20206;-64
2021/08/17 02:13:44;;;;;;;5.10;3.17;;;9.70;94.40;;;;;;2057124;28;20230;-64
2021/08/17 02:14:45;;;;;;;5.13;3.77;;;9.70;94.40;;;;;;2057089;28;20575;-64
2021/08/17 02:15:47;;;;;;;8.10;4.17;;;9.70;94.40;;;;;;2057102;28;20179;-64
2021/08/17 02:16:48;;;;;;;6.82;3.30;;;9.80;94.40;;;;;;2056414;28;20217;-64
2021/08/17 02:17:49;;;;;;;5.80;3.87;;;9.80;94.20;;;;;;2056308;28;20179;-64
2021/08/17 02:18:49;;;;;;;4.90;2.97;;;9.80;94.30;;;;;;2057095;28;20185;-64
2021/08/17 02:19:50;;;;;;;6.53;3.30;;;9.80;94.30;;;;;;2056968;28;20185;-63
2021/08/17 02:20:51;;;;;;;5.77;3.47;;;9.80;94.30;;;;;;2057015;28;20322;-64
2021/08/17 02:21:52;;;;;;;7.73;4.00;;;9.80;94.40;;;;;;2057094;28;20188;-64
2021/08/17 02:22:52;;;;;;;6.23;3.03;;;9.80;94.70;;;;;;2056840;28;20198;-64
2021/08/17 02:23:53;;;;;;;6.97;3.80;;;9.80;94.70;;;;;;2056913;28;20181;-64
2021/08/17 02:24:54;;;;;;;6.00;4.03;;;9.80;94.60;;;;;;2056846;28;20175;-64
2021/08/17 02:25:55;;;;;;;4.80;3.10;;;9.90;94.40;;;;;;2056980;28;20549;-64
2021/08/17 02:26:56;;;;;;;4.88;2.92;;;9.90;94.40;;;;;;2056752;28;20181;-63
2021/08/17 02:27:56;;;;;;;6.40;3.07;;;9.90;94.40;;;;;;2056324;28;20185;-64
2021/08/17 02:28:57;;;;;;;5.37;3.57;;;9.90;94.30;;;;;;2056230;28;20323;-64
2021/08/17 02:29:58;;;;;;;5.67;3.27;;;9.90;94.30;;;;;;2056786;28;20182;-65
2021/08/17 02:30:59;;;;;;;7.03;3.60;;;9.90;94.30;;;;;;2056910;28;20190;-63
2021/08/17 02:31:59;;;;;;;15.93;4.10;;;9.90;94.20;;;;;;2053875;28;20258;-63
2021/08/17 02:33:00;;;;;;;9.80;4.40;;;9.90;94.20;;;;;;2056840;28;20206;-64
2021/08/17 02:34:00;;;;;;;8.07;3.30;;;9.90;94.30;;;;;;2056949;28;20178;-63
2021/08/17 02:35:03;;;;;;;4.13;2.73;;;9.90;94.20;;;;;;2056805;28;20304;-64
2021/08/17 02:36:04;;;;;;;5.43;3.63;;;9.90;94.10;;;;;;2056827;28;20193;-64
2021/08/17 02:37:04;;;;;;;5.30;3.33;;;10.00;94.00;;;;;;2056664;28;20186;-64
2021/08/17 02:38:05;;;;;;;11.43;3.50;;;9.90;94.00;;;;;;2056288;28;20178;-64
2021/08/17 02:39:06;;;;;;;7.77;3.20;;;9.90;93.90;;;;;;2056176;28;20198;-64
2021/08/17 02:40:08;;;;;;;4.05;2.60;;;9.90;94.00;;;;;;2052772;28;20204;-64
2021/08/17 02:41:09;;;;;;;18.30;3.15;;;9.80;93.90;;;;;;2051989;28;20193;-64
2021/08/17 02:42:09;;;;;;;5.00;3.50;;;9.80;93.70;;;;;;2056606;28;20579;-63
2021/08/17 02:43:10;;;;;;;4.30;3.03;;;9.80;93.80;;;;;;2056652;28;20703;-64
2021/08/17 02:44:11;;;;;;;5.78;2.35;;;9.80;93.90;;;;;;2056736;28;20191;-64
2021/08/17 02:45:12;;;;;;;4.23;2.93;;;9.70;93.80;;;;;;2056890;28;20211;-63
2021/08/17 02:46:13;;;;;;;6.77;3.50;;;9.70;93.90;;;;;;2056751;28;20171;-64
2021/08/17 02:47:13;;;;;;;3.63;2.33;;;9.70;94.10;;;;;;2056057;28;20194;-64
2021/08/17 02:48:14;;;;;;;5.43;2.70;;;9.60;94.40;;;;;;2048181;28;20186;-64
2021/08/17 02:49:15;;;;;;;6.90;3.50;;;9.60;94.40;;;;;;2056187;28;20181;-64
2021/08/17 02:50:16;;;;;;;9.13;2.90;;;9.70;94.40;;;;;;2056664;28;20210;-63
2021/08/17 02:51:16;;;;;;;7.03;3.97;;;9.70;94.40;;;;;;2056884;28;20236;-64
2021/08/17 02:52:17;;;;;;;4.67;2.80;;;9.70;94.40;;;;;;2056125;28;20180;-63
2021/08/17 02:53:18;;;;;;;4.97;2.63;;;9.70;94.40;;;;;;2056193;28;20192;-64
2021/08/17 02:54:19;;;;;;;4.63;2.87;;;9.70;94.40;;;;;;2056779;28;20175;-64
2021/08/17 02:55:20;;;;;;;5.33;2.70;;;9.80;94.30;;;;;;2056795;28;20178;-64
2021/08/17 02:56:21;;;;;;;3.35;2.60;;;9.80;94.00;;;;;;2056797;28;20266;-64
2021/08/17 02:57:23;;;;;;;2.93;2.00;;;9.80;94.10;;;;;;2056573;28;20190;-63
2021/08/17 02:58:24;;;;;;;6.72;3.25;;;9.80;94.10;;;;;;2056864;28;20187;-65
2021/08/17 02:59:25;;;;;;;4.03;2.87;;;9.80;93.70;;;;;;2056746;28;20189;-63
2021/08/17 03:00:25;;;;;;;5.28;2.97;;;9.80;93.30;;;;;;2056975;28;20192;-63
2021/08/17 03:01:26;;;;;;;5.93;2.60;;;9.80;93.30;;;;;;2056687;28;20276;-63
2021/08/17 03:02:27;;;;;;;2.53;2.13;;;9.80;93.10;;;;;;2056704;28;20665;-64
2021/08/17 03:03:27;;;;;;;8.03;2.87;;;9.70;93.30;;;;;;2056763;28;20206;-64
2021/08/17 03:04:28;;;;;;;3.57;2.60;;;9.70;93.50;;;;;;2056889;28;20178;-63
2021/08/17 03:05:29;;;;;;;5.33;3.10;;;9.70;93.60;;;;;;2056727;28;20186;-63
2021/08/17 03:06:30;;;;;;;4.80;3.28;;;9.70;93.70;;;;;;2056186;28;20559;-63
2021/08/17 03:07:31;;;;;;;4.83;2.87;;;9.80;93.70;;;;;;2056029;28;20199;-64
2021/08/17 03:08:31;;;;;;;5.17;2.93;;;9.80;93.20;;;;;;2056594;28;20699;-64
2021/08/17 03:09:32;;;;;;;5.70;3.03;;;9.80;93.80;;;;;;2056266;28;20194;-64
2021/08/17 03:10:38;;;;;;;3.67;2.67;;;9.80;93.40;;;;;;2056404;28;20274;-64
2021/08/17 03:11:39;;;;;;;3.17;2.22;;;9.80;93.20;;;;;;2056720;28;20587;-64
2021/08/17 03:12:40;;;;;;;4.00;2.73;;;9.80;93.00;;;;;;2056691;28;20288;-63
2021/08/17 03:13:40;;;;;;;7.93;2.70;;;9.80;93.00;;;;;;2056733;28;20182;-63
2021/08/17 03:14:41;;;;;;;7.33;3.10;;;9.80;93.00;;;;;;2056761;28;20241;-64
2021/08/17 03:15:42;;;;;;;4.27;2.20;;;9.80;93.00;;;;;;2056628;28;20178;-64
2021/08/17 03:16:43;;;;;;;5.78;2.97;;;9.80;92.90;;;;;;2056702;28;20214;-64
2021/08/17 03:17:44;;;;;;;5.33;2.33;;;9.80;93.00;;;;;;2056542;28;20183;-64
2021/08/17 03:18:44;;;;;;;7.33;2.03;;;9.80;93.00;;;;;;2056123;28;20229;-63
2021/08/17 03:19:45;;;;;;;4.80;2.87;;;9.80;93.00;;;;;;2055982;28;20190;-64
2021/08/17 03:20:46;;;;;;;3.27;2.53;;;9.90;93.00;;;;;;2056159;28;20205;-63
2021/08/17 03:21:46;;;;;;;2.77;2.17;;;9.90;92.80;;;;;;2056004;28;20226;-64
2021/08/17 03:22:47;;;;;;;5.13;2.23;;;9.90;93.00;;;;;;2056667;28;20198;-64
2021/08/17 03:23:48;;;;;;;3.30;2.77;;;9.80;93.10;;;;;;2056737;28;20181;-64
2021/08/17 03:24:49;;;;;;;3.85;2.60;;;9.80;93.20;;;;;;2056714;28;20189;-64
2021/08/17 03:25:50;;;;;;;4.77;3.17;;;9.90;93.10;;;;;;2056649;28;20178;-63
2021/08/17 03:26:50;;;;;;;6.53;2.87;;;9.90;93.10;;;;;;2055976;28;20185;-64
2021/08/17 03:27:51;;;;;;;5.20;2.60;;;9.80;92.90;;;;;;2056053;28;20631;-64
2021/08/17 03:28:52;;;;;;;7.53;2.70;;;9.80;93.00;;;;;;2056626;28;20182;-64
2021/08/17 03:29:53;;;;;;;4.07;2.73;;;9.80;93.00;;;;;;2056485;28;20481;-64
2021/08/17 03:30:54;;;;;;;4.73;2.90;;;9.80;93.10;;;;;;2056631;28;20221;-64
2021/08/17 03:31:54;;;;;;;4.93;3.13;;;9.80;93.00;;;;;;2056681;28;20193;-64
2021/08/17 03:32:55;;;;;;;4.07;2.70;;;9.80;93.10;;;;;;2056621;28;20256;-64
2021/08/17 03:33:56;;;;;;;6.00;3.10;;;9.80;93.10;;;;;;2056714;28;20178;-64
2021/08/17 03:34:57;;;;;;;5.97;3.50;;;9.80;92.90;;;;;;2056606;28;20637;-64
2021/08/17 03:35:58;;;;;;;2.93;2.00;;;9.80;92.90;;;;;;2056720;28;20177;-64
2021/08/17 03:36:59;;;;;;;6.25;3.20;;;9.70;92.90;;;;;;2056500;28;20174;-64
2021/08/17 03:38:00;;;;;;;4.87;2.23;;;9.70;92.90;;;;;;2056725;28;20814;-64
2021/08/17 03:39:01;;;;;;;4.27;2.03;;;9.70;93.00;;;;;;2056654;28;20261;-64
2021/08/17 03:40:02;;;;;;;5.13;3.03;;;9.60;92.90;;;;;;2056683;28;20263;-63
2021/08/17 03:41:04;;;;;;;3.67;2.22;;;9.60;93.00;;;;;;2056567;28;20631;-64
2021/08/17 03:42:04;;;;;;;3.90;2.83;;;9.60;93.10;;;;;;2056639;28;20191;-64
2021/08/17 03:43:05;;;;;;;3.50;2.70;;;9.50;93.10;;;;;;2056670;28;20703;-64
2021/08/17 03:44:06;;;;;;;6.37;2.80;;;9.50;93.00;;;;;;2056128;28;20179;-63
2021/08/17 03:45:13;;;;;;;4.70;2.57;;;9.50;92.90;;;;;;2056028;28;20177;-64
2021/08/17 03:46:14;;;;;;;3.13;2.40;;;9.50;92.90;;;;;;2056101;28;20199;-63
2021/08/17 03:47:15;;;;;;;5.45;2.83;;;9.50;92.90;;;;;;2055846;28;20180;-65
2021/08/17 03:48:15;;;;;;;4.47;2.50;;;9.50;92.80;;;;;;2055963;28;20221;-64
2021/08/17 03:49:16;;;;;;;3.47;2.47;;;9.50;92.90;;;;;;2055910;28;20181;-64
2021/08/17 03:50:18;;;;;;;5.13;2.50;;;9.40;93.00;;;;;;2056550;28;20733;-64
2021/08/17 03:51:19;;;;;;;3.47;2.63;;;9.40;93.00;;;;;;2056052;28;20213;-63
2021/08/17 03:52:19;;;;;;;3.93;2.00;;;9.40;93.20;;;;;;2055956;28;20252;-63
2021/08/17 03:53:20;;;;;;;6.30;3.27;;;9.40;93.30;;;;;;2056699;28;20191;-63
2021/08/17 03:54:21;;;;;;;3.97;2.30;;;9.30;93.20;;;;;;2056634;28;20594;-64
2021/08/17 03:55:22;;;;;;;3.80;2.53;;;9.30;93.30;;;;;;2056594;28;20179;-64
2021/08/17 03:56:22;;;;;;;3.37;2.03;;;9.30;93.30;;;;;;2056548;28;20213;-64
2021/08/17 03:57:23;;;;;;;4.17;2.03;;;9.20;93.40;;;;;;2056358;28;20183;-64
2021/08/17 03:58:24;;;;;;;11.67;4.03;;;9.20;93.40;;;;;;2056632;28;20186;-64
2021/08/17 03:59:24;;;;;;;2.33;1.83;;;9.20;93.40;;;;;;2056402;28;20187;-63
2021/08/17 04:00:27;;;;;;;2.83;2.20;;;9.20;93.50;;;;;;2056512;28;20181;-64
2021/08/17 04:01:28;;;;;;;4.85;2.78;;;9.10;93.50;;;;;;2055892;28;20186;-63
2021/08/17 04:02:28;;;;;;;4.67;2.53;;;9.10;93.40;;;;;;2055877;28;20179;-63
2021/08/17 04:03:29;;;;;;;6.70;3.13;;;9.00;93.50;;;;;;2056597;28;20186;-63
2021/08/17 04:04:30;;;;;;;4.17;2.33;;;9.00;93.50;;;;;;2056573;28;20183;-64
2021/08/17 04:05:30;;;;;;;3.53;1.80;;;9.00;93.70;;;;;;2056523;28;20180;-64
2021/08/17 04:06:31;;;;;;;3.60;2.13;;;8.90;93.70;;;;;;2056515;28;20272;-64
2021/08/17 04:07:32;;;;;;;9.93;2.60;;;8.90;93.60;;;;;;2056431;28;20270;-64
2021/08/17 04:08:35;;;;;;;2.23;1.50;;;8.80;93.60;;;;;;2056553;28;20224;-63
2021/08/17 04:09:35;;;;;;;4.38;2.88;;;8.80;93.40;;;;;;2055815;28;20439;-64
2021/08/17 04:10:36;;;;;;;7.77;2.30;;;8.80;93.50;;;;;;2055874;28;20262;-64
2021/08/17 04:11:37;;;;;;;4.23;3.33;;;8.80;93.50;;;;;;2056545;28;20261;-64
2021/08/17 04:12:38;;;;;;;7.63;2.83;;;8.70;93.50;;;;;;2056562;28;20655;-64
2021/08/17 04:13:40;;;;;;;3.92;2.92;;;8.70;93.50;;;;;;2056537;28;20259;-63
2021/08/17 04:14:40;;;;;;;5.15;2.70;;;8.70;93.70;;;;;;2056454;28;20662;-64
2021/08/17 04:15:42;;;;;;;4.30;2.50;;;8.60;93.80;;;;;;2056544;28;20242;-63
2021/08/17 04:16:42;;;;;;;5.07;1.80;;;8.60;94.00;;;;;;2055862;28;20185;-63
2021/08/17 04:17:43;;;;;;;4.57;3.13;;;8.50;94.00;;;;;;2055805;28;20175;-63
2021/08/17 04:18:44;;;;;;;3.90;2.80;;;8.50;93.90;;;;;;2056479;28;20176;-63
2021/08/17 04:19:45;;;;;;;4.43;2.50;;;8.40;93.90;;;;;;2056479;28;20180;-64
2021/08/17 04:20:45;;;;;;;2.87;2.33;;;8.40;93.90;;;;;;2056430;28;20188;-63
2021/08/17 04:21:46;;;;;;;6.10;3.37;;;8.40;93.80;;;;;;2057920;28;20665;-63
2021/08/17 04:22:46;;;;;;;6.83;2.90;;;8.30;93.90;;;;;;2057822;28;20201;-63
2021/08/17 04:23:48;;;;;;;4.43;2.93;;;8.30;93.90;;;;;;2058033;28;20183;-63
2021/08/17 04:24:49;;;;;;;3.88;2.00;;;8.30;93.90;;;;;;2057926;28;20171;-63
2021/08/17 04:25:50;;;;;;;2.65;1.85;;;8.30;93.90;;;;;;2058023;28;20180;-64
2021/08/17 04:26:50;;;;;;;3.63;1.73;;;8.30;93.90;;;;;;2057751;28;20203;-64
2021/08/17 04:27:51;;;;;;;5.80;2.70;;;8.20;94.00;;;;;;2057961;28;20187;-64
2021/08/17 04:28:53;;;;;;;3.83;2.40;;;8.20;94.10;;;;;;2057833;28;20175;-64
2021/08/17 04:29:53;;;;;;;3.90;2.17;;;8.20;94.00;;;;;;2057193;28;20183;-64
2021/08/17 04:30:54;;;;;;;2.73;1.73;;;8.20;93.90;;;;;;2057123;28;20211;-64
2021/08/17 04:31:55;;;;;;;2.53;1.60;;;8.20;93.60;;;;;;2057900;28;20173;-64
2021/08/17 04:32:55;;;;;;;2.97;2.47;;;8.30;93.70;;;;;;2057768;28;20648;-63
2021/08/17 04:33:56;;;;;;;2.37;1.93;;;8.20;93.70;;;;;;2057903;28;20173;-64
2021/08/17 04:34:57;;;;;;;3.83;1.97;;;8.20;93.80;;;;;;2052692;28;20208;-64
2021/08/17 04:35:57;;;;;;;2.90;1.80;;;8.20;94.00;;;;;;2049892;28;20231;-64
2021/08/17 04:36:59;;;;;;;2.77;1.70;;;8.20;94.00;;;;;;2049681;28;20234;-64
2021/08/17 04:37:59;;;;;;;4.38;2.72;;;8.10;94.00;;;;;;2049841;28;20177;-64
2021/08/17 04:39:00;;;;;;;2.53;1.57;;;8.10;94.00;;;;;;2049827;28;20179;-64
2021/08/17 04:40:01;;;;;;;3.23;2.43;;;8.10;94.00;;;;;;2049835;28;20184;-63
2021/08/17 04:41:02;;;;;;;4.97;2.23;;;8.10;93.90;;;;;;2049280;29;20251;-64
2021/08/17 04:42:03;;;;;;;3.60;1.77;;;8.10;94.00;;;;;;2049128;28;20197;-63
2021/08/17 04:43:04;;;;;;;3.28;2.03;;;8.00;93.90;;;;;;2049680;28;20209;-64
2021/08/17 04:44:05;;;;;;;3.03;2.10;;;8.00;94.40;;;;;;2049744;29;20212;-63
2021/08/17 04:45:07;;;;;;;6.47;2.27;;;8.00;94.00;;;;;;2049705;28;20610;-64
2021/08/17 04:46:08;;;;;;;2.83;1.73;;;7.90;93.90;;;;;;2049862;28;20192;-64
2021/08/17 04:47:08;;;;;;;4.90;2.73;;;7.90;94.10;;;;;;2049632;28;20239;-63
2021/08/17 04:48:09;;;;;;;3.00;2.00;;;7.90;94.30;;;;;;2049181;29;20235;-63
2021/08/17 04:49:10;;;;;;;4.43;2.20;;;7.90;94.20;;;;;;2049091;29;20182;-63
2021/08/17 04:50:10;;;;;;;4.50;2.73;;;7.90;94.00;;;;;;2049656;28;20706;-64
2021/08/17 04:51:11;;;;;;;10.00;3.60;;;8.00;94.00;;;;;;2049708;28;20319;-64
2021/08/17 04:52:12;;;;;;;4.70;2.60;;;7.90;93.90;;;;;;2049695;28;20186;-63
2021/08/17 04:53:13;;;;;;;3.43;1.90;;;7.90;94.10;;;;;;2049634;28;20196;-64
2021/08/17 04:54:13;;;;;;;3.17;2.40;;;7.90;94.20;;;;;;2049783;28;20219;-63
2021/08/17 04:55:15;;;;;;;4.57;2.40;;;7.90;94.20;;;;;;2049718;28;20183;-63
2021/08/17 04:56:15;;;;;;;4.57;2.58;;;7.90;94.10;;;;;;2043299;28;20279;-64
2021/08/17 04:57:16;;;;;;;3.37;2.50;;;7.90;94.00;;;;;;2041166;29;20189;-64
2021/08/17 04:58:17;;;;;;;4.60;2.30;;;8.00;94.10;;;;;;2041553;29;20665;-63
2021/08/17 04:59:17;;;;;;;2.37;2.13;;;7.90;94.00;;;;;;2041532;29;20292;-62
2021/08/17 05:00:20;;;;;;;3.73;2.03;;;7.90;94.10;;;;;;2041235;29;20256;-63
2021/08/17 05:01:21;;;;;;;2.53;2.33;;;7.90;94.20;;;;;;2041529;29;20557;-64
2021/08/17 05:02:21;;;;;;;4.93;2.60;;;7.90;94.20;;;;;;2048776;28;20196;-64
2021/08/17 05:03:23;;;;;;;5.87;2.60;;;7.90;94.20;;;;;;2041021;29;20228;-63
2021/08/17 05:04:23;;;;;;;3.40;2.28;;;7.90;94.20;;;;;;2040930;29;20203;-64
2021/08/17 05:05:25;;;;;;;3.80;2.80;;;7.90;94.20;;;;;;2041652;29;20187;-64
2021/08/17 05:06:26;;;;;;;2.10;1.90;;;7.90;94.20;;;;;;2041649;29;20177;-64
2021/08/17 05:07:26;;;;;;;3.33;2.47;;;7.90;94.10;;;;;;2041421;29;20188;-63
2021/08/17 05:08:27;;;;;;;3.93;2.77;;;7.90;94.10;;;;;;2041612;29;20177;-63
2021/08/17 05:09:28;;;;;;;3.27;2.77;;;8.00;94.20;;;;;;2041534;29;20600;-63
2021/08/17 05:10:29;;;;;;;3.47;2.30;;;7.90;94.30;;;;;;2041439;29;20287;-63
2021/08/17 05:11:30;;;;;;;5.53;2.37;;;7.90;94.50;;;;;;2041684;29;20291;-64
2021/08/17 05:12:31;;;;;;;2.90;2.40;;;7.90;94.50;;;;;;2040800;29;20190;-64
2021/08/17 05:13:31;;;;;;;4.50;2.50;;;7.90;94.40;;;;;;2040998;29;20179;-63
2021/08/17 05:14:32;;;;;;;2.40;2.07;;;7.90;94.30;;;;;;2041413;29;20618;-63
2021/08/17 05:15:34;;;;;;;2.17;1.63;;;8.00;94.20;;;;;;2041632;29;20176;-63
2021/08/17 05:16:35;;;;;;;2.17;1.60;;;8.00;94.10;;;;;;2041519;29;20246;-64
2021/08/17 05:17:36;;;;;;;3.72;2.40;;;8.00;94.00;;;;;;2041176;29;20184;-64
2021/08/17 05:18:37;;;;;;;3.97;2.13;;;8.00;94.00;;;;;;2041497;29;20215;-63
2021/08/17 05:19:38;;;;;;;2.23;1.90;;;8.00;94.10;;;;;;2040722;29;20432;-63